Pluma Del Pato, Argentina
Current Conditions -  °F | °C
As of 2:00 AM on Friday 21 Nov 2014 (Local Time) from SASJ Reporting Station
Overcast Overcast  
Wind Chill: 66°   Ceiling: 3000
Heat Index: 66°   Visibility: 6mi
Dew Point: 64°   Wind: 2mph
Humidity: 94%   Direction: 110°ESE
Pressure: 29.85"   Gusts: NA
Location:  23.38°S, 63.1°W
Report Text: SASJ 210500Z 11002KT 9999 SCT015 OVC03019/18 Q1011
Loading
Personal Weather Stations






























Interactive Weather Map New forecast layout! Learn more

10-Day Weather Forecast

Advertisements
Track Severe Weather on mobile